Time;durP1;ratioP1;P1;durP2;ratioP2;P2;SDS_P1;SDS_P2;PMS_P1;PMS_P2;Temp;Humidity;BMP_temperature;BMP_pressure;BME280_temperature;BME280_humidity;BME280_pressure;Samples;Min_cycle;Max_cycle;Signal;HPM_P1;HPM_P2
2022/11/17 00:01:14;;;;;;;9.50;3.13;;;;;;;4.80;100.00;94124.91;5121605;27;24791;-71
2022/11/17 00:03:42;;;;;;;6.45;3.40;;;;;;;4.76;100.00;94132.91;5120144;27;24430;-73
2022/11/17 00:06:08;;;;;;;6.40;2.85;;;;;;;4.73;100.00;94127.97;5102915;27;24437;-71
2022/11/17 00:08:35;;;;;;;4.45;2.95;;;;;;;4.78;100.00;94118.22;5124635;27;24997;-71
2022/11/17 00:11:02;;;;;;;5.03;2.83;;;;;;;4.87;100.00;94112.50;5112425;27;24430;-71
2022/11/17 00:16:13;;;;;;;5.38;2.70;;;;;;;5.17;100.00;94103.66;5119360;27;24428;-70
2022/11/17 00:21:27;;;;;;;4.97;2.80;;;;;;;5.28;100.00;94106.31;5114694;27;24436;-71
2022/11/17 00:23:54;;;;;;;4.85;2.70;;;;;;;5.38;100.00;94099.63;5118175;27;24430;-71
2022/11/17 00:26:22;;;;;;;4.23;2.97;;;;;;;5.41;100.00;94081.41;5111838;27;24433;-70
2022/11/17 00:28:53;;;;;;;3.75;2.25;;;;;;;5.50;100.00;94083.34;5111689;27;25017;-71
2022/11/17 00:34:06;;;;;;;7.87;2.93;;;;;;;5.63;100.00;94083.31;5116965;27;24481;-71
2022/11/17 00:36:37;;;;;;;4.38;2.60;;;;;;;5.68;100.00;94070.97;5119099;27;25199;-71
2022/11/17 00:39:05;;;;;;;5.70;3.03;;;;;;;5.64;100.00;94072.13;5114009;27;24944;-70
2022/11/17 00:41:31;;;;;;;5.07;2.55;;;;;;;5.68;100.00;94073.56;5119158;27;24430;-70
2022/11/17 00:43:58;;;;;;;4.88;2.80;;;;;;;5.69;100.00;94072.59;5110997;27;24429;-71
2022/11/17 00:46:24;;;;;;;4.00;2.90;;;;;;;5.71;100.00;94067.34;5121427;27;25009;-70
2022/11/17 00:48:51;;;;;;;5.80;3.58;;;;;;;5.91;100.00;94056.50;5121713;27;24425;-71
2022/11/17 00:51:17;;;;;;;5.10;3.50;;;;;;;5.76;100.00;94042.19;5104741;27;24805;-71
2022/11/17 00:53:45;;;;;;;5.47;3.28;;;;;;;5.68;100.00;94027.31;5122167;27;24433;-70
2022/11/17 00:56:12;;;;;;;5.30;3.42;;;;;;;5.60;100.00;94029.63;5119957;27;24800;-71
2022/11/17 00:58:38;;;;;;;5.75;3.40;;;;;;;5.60;100.00;94027.03;5121152;27;24430;-70
2022/11/17 01:01:05;;;;;;;7.50;3.30;;;;;;;5.56;100.00;94026.44;5100514;27;24441;-70
2022/11/17 01:03:33;;;;;;;5.22;3.38;;;;;;;5.42;100.00;94020.66;5122347;27;24432;-71
2022/11/17 01:06:04;;;;;;;4.57;3.35;;;;;;;5.50;100.00;94011.47;5111537;27;24437;-71
2022/11/17 01:08:30;;;;;;;4.72;3.00;;;;;;;5.59;100.00;94013.38;5110649;27;24796;-71
2022/11/17 01:11:04;;;;;;;3.70;3.10;;;;;;;5.64;100.00;94009.69;5107085;27;24433;-71
2022/11/17 01:13:31;;;;;;;7.55;3.88;;;;;;;5.55;100.00;94011.13;5109972;27;24446;-71
2022/11/17 01:16:02;;;;;;;9.13;3.60;;;;;;;5.49;100.00;93999.56;5106675;28;24425;-71
2022/11/17 01:18:28;;;;;;;4.45;3.15;;;;;;;5.48;100.00;94003.03;5109385;27;25001;-71
2022/11/17 01:20:55;;;;;;;5.60;3.78;;;;;;;5.34;100.00;93998.91;5105988;28;24448;-71
2022/11/17 01:23:21;;;;;;;10.43;3.10;;;;;;;5.24;100.00;94004.78;5121245;27;24444;-70
2022/11/17 01:25:48;;;;;;;5.93;3.00;;;;;;;5.22;100.00;93991.22;5124636;27;24433;-71
2022/11/17 01:28:16;;;;;;;6.40;2.97;;;;;;;5.13;100.00;93994.44;5108600;27;24788;-71
2022/11/17 01:30:42;;;;;;;6.90;2.90;;;;;;;5.05;100.00;93992.41;5123765;27;24433;-71
2022/11/17 01:33:09;;;;;;;4.97;3.10;;;;;;;5.08;100.00;93989.66;5110101;27;24457;-70
2022/11/17 01:35:35;;;;;;;3.65;2.97;;;;;;;5.20;100.00;93985.41;5116925;27;25013;-71
2022/11/17 01:38:02;;;;;;;6.15;3.42;;;;;;;5.13;100.00;93989.31;5121182;27;24432;-70
2022/11/17 01:40:28;;;;;;;6.78;3.00;;;;;;;5.17;100.00;93980.47;5104342;28;24436;-70
2022/11/17 01:42:55;;;;;;;4.35;2.83;;;;;;;5.25;100.00;93968.72;5104107;28;24445;-70
2022/11/17 01:45:25;;;;;;;3.20;2.50;;;;;;;5.33;100.00;93965.63;5108577;28;24429;-70
2022/11/17 01:47:58;;;;;;;4.93;2.97;;;;;;;5.44;100.00;93947.69;5120901;27;20852;-70
2022/11/17 01:50:30;;;;;;;4.68;2.97;;;;;;;5.53;100.00;93931.66;5103715;28;24445;-70
2022/11/17 01:52:59;;;;;;;5.53;3.08;;;;;;;5.58;100.00;93921.84;5117399;28;24452;-70
2022/11/17 01:55:31;;;;;;;4.70;2.83;;;;;;;5.47;100.00;93929.50;5109293;28;24993;-70
2022/11/17 01:58:03;;;;;;;5.43;3.00;;;;;;;5.40;100.00;93915.47;5113310;28;24428;-71
2022/11/17 02:00:31;;;;;;;5.32;3.08;;;;;;;5.43;100.00;93922.97;5101797;28;24456;-70
2022/11/17 02:02:58;;;;;;;7.15;3.20;;;;;;;5.40;100.00;93906.97;5117487;28;24519;-71
2022/11/17 02:05:35;;;;;;;3.22;2.78;;;;;;;5.46;100.00;93904.78;5119447;27;24428;-71
2022/11/17 02:08:06;;;;;;;4.03;2.67;;;;;;;5.46;100.00;93893.69;5108102;28;24436;-71
2022/11/17 02:10:34;;;;;;;3.03;2.47;;;;;;;5.54;100.00;93899.09;5110618;28;24444;-70
2022/11/17 02:13:02;;;;;;;5.20;2.80;;;;;;;5.49;100.00;93896.84;5107698;27;25022;-71
2022/11/17 02:15:29;;;;;;;4.25;2.65;;;;;;;5.55;100.00;93893.81;5111093;27;24431;-70
2022/11/17 02:17:58;;;;;;;4.45;3.05;;;;;;;5.38;100.00;93901.94;5113281;28;24434;-71
2022/11/17 02:20:36;;;;;;;4.90;2.90;;;;;;;5.22;100.00;93886.00;5118226;28;24979;-71
2022/11/17 02:23:36;;;;;;;3.50;2.50;;;;;;;5.24;100.00;93871.31;5120846;28;24500;-71
2022/11/17 02:26:37;;;;;;;4.75;2.95;;;;;;;5.38;100.00;93860.88;5121480;27;24806;-71
2022/11/17 02:29:13;;;;;;;4.88;3.00;;;;;;;5.39;100.00;93867.66;5122486;28;24440;-71
2022/11/17 02:31:46;;;;;;;4.15;2.90;;;;;;;5.31;100.00;93867.38;5114448;28;24445;-71
2022/11/17 02:34:26;;;;;;;3.88;2.65;;;;;;;5.33;100.00;93868.06;5116662;28;24444;-71
2022/11/17 02:36:58;;;;;;;3.08;2.58;;;;;;;5.35;100.00;93866.22;5109004;28;24457;-70
2022/11/17 02:39:30;;;;;;;4.90;2.70;;;;;;;5.38;100.00;93868.59;5117510;28;24433;-71
2022/11/17 02:42:04;;;;;;;4.90;2.85;;;;;;;5.34;100.00;93878.25;5111591;28;24787;-70
2022/11/17 02:44:36;;;;;;;4.57;3.05;;;;;;;5.38;100.00;93881.41;5110495;28;24442;-70
2022/11/17 02:47:06;;;;;;;4.95;2.83;;;;;;;5.36;100.00;93890.16;5114206;28;24437;-70
2022/11/17 02:49:37;;;;;;;5.93;2.40;;;;;;;5.42;100.00;93899.97;5125529;27;24421;-71
2022/11/17 02:52:05;;;;;;;3.45;2.53;;;;;;;5.49;100.00;93898.63;5118542;27;25016;-71
2022/11/17 02:54:33;;;;;;;4.85;3.30;;;;;;;5.50;100.00;93908.75;5128535;27;24426;-71
2022/11/17 02:57:00;;;;;;;3.40;2.60;;;;;;;5.53;100.00;93892.31;5115198;27;24436;-71
2022/11/17 02:59:30;;;;;;;4.97;3.20;;;;;;;5.71;100.00;93879.84;5113773;27;24799;-71
2022/11/17 03:02:14;;;;;;;5.47;3.00;;;;;;;5.91;100.00;93868.94;5109209;27;24443;-71
2022/11/17 03:04:49;;;;;;;7.15;3.15;;;;;;;5.87;100.00;93859.81;5114691;27;24436;-71
2022/11/17 03:07:29;;;;;;;5.68;3.10;;;;;;;5.80;100.00;93867.16;5113588;27;24434;-71
2022/11/17 03:10:08;;;;;;;3.28;2.95;;;;;;;5.75;100.00;93860.75;5124636;27;24438;-71
2022/11/17 03:12:42;;;;;;;3.90;3.20;;;;;;;5.77;100.00;93862.25;5105097;27;25020;-71
2022/11/17 03:15:17;;;;;;;4.97;2.95;;;;;;;5.79;100.00;93875.00;5123571;27;24436;-71
2022/11/17 03:17:49;;;;;;;4.43;3.22;;;;;;;5.89;100.00;93854.56;5111283;27;25211;-71
2022/11/17 03:20:19;;;;;;;3.72;2.72;;;;;;;6.00;100.00;93857.97;5121168;27;24453;-71
2022/11/17 03:22:54;;;;;;;4.90;2.80;;;;;;;6.11;100.00;93839.19;5112778;27;24425;-71
2022/11/17 03:25:23;;;;;;;4.10;2.85;;;;;;;6.17;100.00;93845.63;5106027;27;24426;-71
2022/11/17 03:27:55;;;;;;;4.57;2.65;;;;;;;5.97;100.00;93852.25;5118038;27;24803;-71
2022/11/17 03:30:24;;;;;;;5.00;2.87;;;;;;;5.86;100.00;93850.47;5120222;27;24795;-71
2022/11/17 03:32:56;;;;;;;3.38;2.60;;;;;;;5.86;100.00;93847.91;5111925;27;25002;-70
2022/11/17 03:35:27;;;;;;;3.83;2.57;;;;;;;5.78;100.00;93839.94;5120348;27;24440;-71
2022/11/17 03:37:57;;;;;;;10.93;3.03;;;;;;;5.75;100.00;93837.63;5119600;27;24433;-71
2022/11/17 03:40:27;;;;;;;5.68;2.75;;;;;;;5.79;100.00;93850.13;5124121;27;24813;-71
2022/11/17 03:42:59;;;;;;;4.65;3.00;;;;;;;5.82;100.00;93844.75;5120685;27;25053;-71
2022/11/17 03:45:28;;;;;;;5.07;2.50;;;;;;;5.91;100.00;93835.53;5109808;27;24856;-71
2022/11/17 03:48:03;;;;;;;5.75;2.70;;;;;;;5.93;100.00;93827.72;5120690;27;24445;-71
2022/11/17 03:50:33;;;;;;;4.85;2.75;;;;;;;5.94;100.00;93832.75;5111622;27;24440;-71
2022/11/17 03:53:01;;;;;;;3.40;2.65;;;;;;;6.17;100.00;93838.72;5121796;27;24475;-71
2022/11/17 03:55:34;;;;;;;4.32;2.55;;;;;;;6.09;100.00;93827.41;5104721;27;24425;-71
2022/11/17 03:58:05;;;;;;;4.00;2.42;;;;;;;6.10;100.00;93823.88;5104106;27;24469;-71
2022/11/17 04:00:34;;;;;;;2.97;2.17;;;;;;;6.16;100.00;93829.38;5119133;27;24666;-71
2022/11/17 04:03:02;;;;;;;3.55;2.22;;;;;;;6.14;100.00;93835.56;5123324;27;24428;-71
2022/11/17 04:05:29;;;;;;;4.70;2.70;;;;;;;6.12;100.00;93830.56;5112247;27;24440;-71
2022/11/17 04:07:55;;;;;;;3.60;2.70;;;;;;;6.12;100.00;93835.69;5117812;27;24441;-71
2022/11/17 04:10:25;;;;;;;5.53;2.83;;;;;;;6.01;100.00;93828.00;5116555;27;24978;-71
2022/11/17 04:15:57;;;;;;;7.35;2.70;;;;;;;5.95;100.00;93824.13;5072470;28;24491;-71
2022/11/17 04:18:26;;;;;;;5.73;2.80;;;;;;;5.96;100.00;93820.59;5073197;28;24542;-71
2022/11/17 04:20:54;;;;;;;4.20;2.75;;;;;;;5.99;100.00;93820.38;5096320;27;24490;-71
2022/11/17 04:23:21;;;;;;;3.08;2.60;;;;;;;5.94;100.00;93811.41;5116863;27;24426;-71
2022/11/17 04:28:38;;;;;;;3.65;2.40;;;;;;;5.89;100.00;93811.69;5110680;27;24566;-71
2022/11/17 04:31:11;;;;;;;3.67;2.50;;;;;;;5.96;100.00;93804.38;5108800;27;24782;-71
2022/11/17 04:33:40;;;;;;;4.82;2.45;;;;;;;5.92;100.00;93808.09;5122731;27;24449;-71
2022/11/17 04:36:08;;;;;;;5.85;2.88;;;;;;;5.86;100.00;93806.81;5108121;27;24428;-70
2022/11/17 04:38:35;;;;;;;14.30;2.72;;;;;;;5.86;100.00;93805.97;5122553;27;25013;-71
2022/11/17 04:43:50;;;;;;;6.50;4.00;;;;;;;5.92;100.00;93813.22;5086356;27;24799;-71
2022/11/17 04:46:17;;;;;;;4.00;3.15;;;;;;;5.97;100.00;93806.00;5107165;27;24438;-71
2022/11/17 04:48:46;;;;;;;4.75;3.38;;;;;;;5.96;100.00;93794.09;5122925;27;24792;-71
2022/11/17 04:51:13;;;;;;;4.50;2.80;;;;;;;5.99;100.00;93793.88;5103677;27;24437;-71
2022/11/17 04:53:40;;;;;;;3.40;2.63;;;;;;;6.02;100.00;93804.72;5104210;27;24818;-70
2022/11/17 04:56:07;;;;;;;3.67;2.13;;;;;;;6.06;100.00;93795.84;5104796;27;24792;-70
2022/11/17 04:58:34;;;;;;;4.57;2.80;;;;;;;6.12;100.00;93801.44;5121919;27;24918;-70
2022/11/17 05:01:11;;;;;;;6.17;2.47;;;;;;;6.14;100.00;93802.97;5122427;27;24548;-70
2022/11/17 05:03:42;;;;;;;3.17;2.42;;;;;;;6.19;100.00;93803.44;5111432;27;24433;-70
2022/11/17 05:06:14;;;;;;;4.07;2.42;;;;;;;6.24;100.00;93797.94;5121745;27;24441;-70
2022/11/17 05:08:41;;;;;;;4.10;2.20;;;;;;;6.25;100.00;93795.25;5111122;27;24509;-71
2022/11/17 05:13:53;;;;;;;3.47;2.33;;;;;;;6.35;100.00;93797.13;5108784;27;24546;-71
2022/11/17 05:19:07;;;;;;;3.33;2.75;;;;;;;6.45;100.00;93810.88;5107620;27;24421;-71
2022/11/17 05:21:35;;;;;;;3.05;2.20;;;;;;;6.43;100.00;93813.56;5121809;27;20812;-71
2022/11/17 05:24:01;;;;;;;5.90;2.63;;;;;;;6.43;100.00;93803.28;5120814;27;24428;-71
2022/11/17 05:26:29;;;;;;;2.88;2.30;;;;;;;6.49;100.00;93809.72;5121719;27;24421;-70
2022/11/17 05:28:59;;;;;;;3.58;2.70;;;;;;;6.47;100.00;93802.13;5108303;27;24433;-71
2022/11/17 05:31:26;;;;;;;5.05;2.80;;;;;;;6.51;100.00;93802.69;5114935;27;24440;-71
2022/11/17 05:33:53;;;;;;;3.08;2.55;;;;;;;6.61;100.00;93805.38;5114106;27;24441;-71
2022/11/17 05:36:21;;;;;;;4.03;2.70;;;;;;;6.62;100.00;93794.94;5120859;27;24444;-71
2022/11/17 05:38:50;;;;;;;2.83;2.20;;;;;;;6.64;100.00;93787.13;5109363;27;20749;-71
2022/11/17 05:41:17;;;;;;;3.35;2.30;;;;;;;6.68;100.00;93791.09;5114825;27;25021;-71
2022/11/17 05:43:45;;;;;;;3.22;2.45;;;;;;;6.74;100.00;93788.00;5111991;27;21130;-71
2022/11/17 05:46:11;;;;;;;4.38;2.72;;;;;;;6.66;100.00;93785.25;5119713;27;24418;-71
2022/11/17 05:48:39;;;;;;;3.92;2.22;;;;;;;6.68;100.00;93785.94;5109873;27;24425;-71
2022/11/17 05:51:06;;;;;;;4.78;3.00;;;;;;;6.68;100.00;93806.53;5118880;27;24436;-71
2022/11/17 05:53:32;;;;;;;3.25;2.42;;;;;;;6.67;100.00;93804.88;5110605;28;24449;-71
2022/11/17 05:56:11;;;;;;;4.25;2.25;;;;;;;6.64;100.00;93795.66;5117476;28;24507;-71
2022/11/17 05:58:42;;;;;;;3.55;2.55;;;;;;;6.65;100.00;93805.00;5102616;28;20767;-71
2022/11/17 06:01:11;;;;;;;5.53;4.57;;;;;;;6.64;100.00;93800.81;5118965;28;21299;-71
2022/11/17 06:03:41;;;;;;;18.65;13.40;;;;;;;6.68;100.00;93796.25;5109107;28;24425;-71
2022/11/17 06:06:08;;;;;;;20.05;14.25;;;;;;;6.71;100.00;93801.97;5108399;28;21155;-71
2022/11/17 06:08:36;;;;;;;3.92;2.63;;;;;;;6.72;100.00;93802.78;5110288;28;20758;-71
2022/11/17 06:11:02;;;;;;;7.65;5.95;;;;;;;6.67;100.00;93802.28;5115608;28;24474;-70
2022/11/17 06:13:30;;;;;;;6.15;2.78;;;;;;;6.65;100.00;93806.75;5110622;27;24452;-71
2022/11/17 06:15:59;;;;;;;3.63;2.17;;;;;;;6.68;100.00;93794.47;5106161;28;20787;-71
2022/11/17 06:18:28;;;;;;;3.75;2.42;;;;;;;6.70;100.00;93802.06;5099248;28;24430;-71
2022/11/17 06:20:55;;;;;;;3.40;2.65;;;;;;;6.59;100.00;93797.75;5109264;28;24440;-71
2022/11/17 06:23:25;;;;;;;3.77;2.70;;;;;;;6.54;100.00;93803.28;5121147;27;24879;-71
2022/11/17 06:25:52;;;;;;;3.55;2.45;;;;;;;6.49;100.00;93802.00;5111733;27;24433;-75
2022/11/17 06:28:21;;;;;;;4.03;2.20;;;;;;;6.47;100.00;93809.00;5111557;27;24437;-71
2022/11/17 06:30:50;;;;;;;3.40;1.98;;;;;;;6.42;100.00;93819.66;5125031;27;24507;-71
2022/11/17 06:33:18;;;;;;;7.25;2.22;;;;;;;6.42;100.00;93829.94;5122552;27;21154;-71
2022/11/17 06:35:47;;;;;;;3.38;2.00;;;;;;;6.41;100.00;93828.28;5113884;27;24443;-71
2022/11/17 06:38:14;;;;;;;2.70;2.10;;;;;;;6.49;100.00;93820.81;5122424;27;24433;-71
2022/11/17 06:40:41;;;;;;;2.50;2.00;;;;;;;6.50;100.00;93801.06;5124502;27;24443;-71
2022/11/17 06:43:08;;;;;;;4.15;1.70;;;;;;;6.58;100.00;93785.84;5121845;27;24432;-71
2022/11/17 06:45:35;;;;;;;2.78;2.05;;;;;;;6.57;100.00;93801.41;5119563;27;24465;-71
2022/11/17 06:48:04;;;;;;;4.63;3.00;;;;;;;6.57;100.00;93798.84;5114168;27;24795;-71
2022/11/17 06:50:30;;;;;;;4.90;3.53;;;;;;;6.60;100.00;93798.56;5124874;27;25072;-71
2022/11/17 06:52:58;;;;;;;3.53;2.30;;;;;;;6.60;100.00;93801.16;5122862;27;25020;-71
2022/11/17 06:55:25;;;;;;;6.53;5.43;;;;;;;6.62;100.00;93789.00;5123918;27;24443;-71
2022/11/17 06:57:51;;;;;;;5.18;2.80;;;;;;;6.58;100.00;93800.47;5124362;27;24437;-71
2022/11/17 07:00:19;;;;;;;4.00;2.92;;;;;;;6.55;100.00;93799.75;5122462;27;24433;-71
2022/11/17 07:02:45;;;;;;;4.97;3.05;;;;;;;6.57;100.00;93803.97;5111218;27;24436;-71
2022/11/17 07:05:13;;;;;;;4.00;2.97;;;;;;;6.66;100.00;93808.38;5116846;27;24528;-71
2022/11/17 07:07:40;;;;;;;5.43;3.47;;;;;;;6.66;100.00;93806.63;5111674;27;24500;-71
2022/11/17 07:10:08;;;;;;;6.95;3.40;;;;;;;6.66;100.00;93809.19;5121844;27;24437;-71
2022/11/17 07:12:34;;;;;;;4.85;2.40;;;;;;;6.66;100.00;93806.63;5124315;27;24808;-71
2022/11/17 07:15:01;;;;;;;3.97;3.00;;;;;;;6.67;100.00;93810.00;5117858;27;24454;-70
2022/11/17 07:17:28;;;;;;;4.70;3.28;;;;;;;6.71;100.00;93819.97;5101262;27;24433;-71
2022/11/17 07:19:55;;;;;;;6.28;2.85;;;;;;;6.73;100.00;93812.13;5121342;27;24445;-70
2022/11/17 07:22:23;;;;;;;4.57;2.97;;;;;;;6.73;100.00;93812.94;5123326;27;24532;-71
2022/11/17 07:24:50;;;;;;;8.15;2.53;;;;;;;6.79;100.00;93803.91;5123415;27;24463;-71
2022/11/17 07:27:16;;;;;;;2.55;2.20;;;;;;;6.80;100.00;93810.69;5110084;27;24510;-71
2022/11/17 07:29:43;;;;;;;4.10;2.08;;;;;;;6.89;100.00;93817.66;5119748;27;25033;-71
2022/11/17 07:32:13;;;;;;;3.65;1.75;;;;;;;6.98;100.00;93823.84;5103866;27;24438;-72
2022/11/17 07:34:40;;;;;;;4.25;1.65;;;;;;;7.05;100.00;93819.03;5123961;27;24446;-71
2022/11/17 07:37:06;;;;;;;4.25;1.60;;;;;;;7.17;100.00;93815.47;5112699;27;24430;-71
2022/11/17 07:39:34;;;;;;;1.95;1.30;;;;;;;7.24;100.00;93801.16;5113790;27;24456;-71
2022/11/17 07:42:01;;;;;;;3.25;1.58;;;;;;;7.23;100.00;93796.94;5112627;27;24426;-71
2022/11/17 07:44:27;;;;;;;2.17;1.30;;;;;;;7.27;100.00;93791.44;5120030;27;24429;-71
2022/11/17 07:46:54;;;;;;;2.17;1.15;;;;;;;7.31;100.00;93792.00;5104870;27;25034;-71
2022/11/17 07:49:21;;;;;;;2.67;1.52;;;;;;;7.34;100.00;93793.50;5123647;27;24440;-71
2022/11/17 07:51:48;;;;;;;3.15;1.42;;;;;;;7.48;100.00;93806.88;5101261;27;24433;-71
2022/11/17 07:54:14;;;;;;;3.93;1.57;;;;;;;7.49;100.00;93810.28;5121971;27;24539;-71
2022/11/17 07:56:42;;;;;;;8.40;1.80;;;;;;;7.53;100.00;93827.13;5106308;28;25066;-71
2022/11/17 07:59:09;;;;;;;5.20;1.88;;;;;;;7.56;100.00;93826.03;5123137;27;25033;-71
2022/11/17 08:01:35;;;;;;;4.88;1.50;;;;;;;7.69;100.00;93834.41;5110290;27;24433;-71
2022/11/17 08:04:02;;;;;;;3.08;1.42;;;;;;;7.76;100.00;93830.38;5123503;27;24417;-71
2022/11/17 08:06:28;;;;;;;2.83;1.30;;;;;;;7.78;100.00;93841.38;5115396;27;25310;-71
2022/11/17 08:08:55;;;;;;;4.72;1.30;;;;;;;7.89;100.00;93841.28;5129612;27;24427;-71
2022/11/17 08:11:21;;;;;;;1.83;0.90;;;;;;;7.94;100.00;93833.22;5123186;27;24475;-72
2022/11/17 08:13:49;;;;;;;3.13;1.38;;;;;;;7.90;100.00;93837.81;5104572;27;20780;-72
2022/11/17 08:16:16;;;;;;;2.05;1.33;;;;;;;7.97;100.00;93845.81;5109416;28;20759;-72
2022/11/17 08:18:43;;;;;;;3.25;1.52;;;;;;;7.97;100.00;93844.09;5118305;27;24433;-73
2022/11/17 08:21:12;;;;;;;3.08;1.40;;;;;;;7.99;100.00;93841.38;5118368;27;24438;-72
2022/11/17 08:23:39;;;;;;;3.08;1.10;;;;;;;8.08;100.00;93842.34;5117139;27;21141;-72
2022/11/17 08:26:07;;;;;;;5.20;1.48;;;;;;;8.10;100.00;93843.88;5110042;27;20767;-72
2022/11/17 08:28:34;;;;;;;2.53;1.10;;;;;;;8.16;100.00;93840.78;5099894;27;20800;-72
2022/11/17 08:31:03;;;;;;;9.45;1.65;;;;;;;8.20;100.00;93843.91;5113620;27;20768;-71
2022/11/17 08:33:30;;;;;;;4.90;1.23;;;;;;;8.17;100.00;93847.56;5107642;27;20755;-71
2022/11/17 08:35:57;;;;;;;2.83;1.10;;;;;;;8.18;100.00;93850.94;5118268;27;24432;-71
2022/11/17 08:38:27;;;;;;;7.28;1.20;;;;;;;8.22;100.00;93849.75;5110678;27;24439;-71
2022/11/17 08:40:54;;;;;;;1.50;0.77;;;;;;;8.28;100.00;93854.41;5106640;27;20819;-72
2022/11/17 08:43:20;;;;;;;2.83;1.08;;;;;;;8.35;100.00;93858.09;5121125;27;24425;-72
2022/11/17 08:45:47;;;;;;;1.80;1.00;;;;;;;8.36;100.00;93858.91;5115010;27;24433;-71
2022/11/17 08:48:15;;;;;;;2.15;1.00;;;;;;;8.38;100.00;93850.13;5101492;27;21250;-71
2022/11/17 08:50:41;;;;;;;2.30;0.80;;;;;;;8.44;100.00;93867.66;5116373;27;20862;-71
2022/11/17 08:53:13;;;;;;;4.07;1.05;;;;;;;8.47;100.00;93857.06;5108435;28;24444;-71
2022/11/17 08:55:39;;;;;;;1.70;0.90;;;;;;;8.58;100.00;93870.84;5122015;27;20755;-72
2022/11/17 08:58:06;;;;;;;3.33;1.00;;;;;;;8.62;100.00;93873.00;5126460;27;21345;-72
2022/11/17 09:00:32;;;;;;;2.37;0.97;;;;;;;8.69;100.00;93874.13;5116905;27;20773;-72
2022/11/17 09:02:59;;;;;;;2.43;1.00;;;;;;;8.72;100.00;93875.63;5115523;27;21138;-72
2022/11/17 09:05:27;;;;;;;2.30;0.93;;;;;;;8.74;100.00;93878.88;5109713;27;20772;-72
2022/11/17 09:07:53;;;;;;;2.25;0.90;;;;;;;8.75;100.00;93874.53;5126491;27;21356;-72
2022/11/17 09:10:20;;;;;;;3.72;0.82;;;;;;;8.74;100.00;93876.31;5108750;27;24434;-72
2022/11/17 09:12:46;;;;;;;4.60;1.10;;;;;;;8.72;100.00;93880.81;5118392;27;24470;-72
2022/11/17 09:15:13;;;;;;;2.25;0.95;;;;;;;8.72;100.00;93888.53;5109685;27;24446;-72
2022/11/17 09:17:41;;;;;;;2.37;1.00;;;;;;;8.71;100.00;93890.31;5115344;27;24429;-72
2022/11/17 09:20:09;;;;;;;2.90;1.05;;;;;;;8.74;100.00;93894.38;5123009;27;20804;-71
2022/11/17 09:22:36;;;;;;;5.07;1.20;;;;;;;8.91;100.00;93898.91;5113456;27;20768;-72
2022/11/17 09:25:03;;;;;;;3.53;1.17;;;;;;;8.95;100.00;93902.06;5121280;27;20796;-72
2022/11/17 09:27:30;;;;;;;6.10;1.15;;;;;;;8.90;100.00;93905.03;5112060;27;24437;-72
2022/11/17 09:29:56;;;;;;;1.83;0.85;;;;;;;8.88;100.00;93912.09;5109469;27;24983;-71
2022/11/17 09:32:23;;;;;;;3.72;0.90;;;;;;;8.93;100.00;93915.06;5120886;27;24425;-72
2022/11/17 09:34:49;;;;;;;2.65;1.02;;;;;;;8.88;100.00;93908.69;5109885;27;25033;-72
2022/11/17 09:37:16;;;;;;;1.93;0.80;;;;;;;8.93;100.00;93916.84;5118547;27;24433;-71
2022/11/17 09:39:44;;;;;;;6.07;1.37;;;;;;;8.89;100.00;93915.47;5110757;27;24522;-71
2022/11/17 09:42:13;;;;;;;2.75;1.00;;;;;;;8.92;100.00;93918.63;5109168;27;20769;-72
2022/11/17 09:44:45;;;;;;;5.57;1.30;;;;;;;8.91;100.00;93914.41;5110753;27;21136;-71
2022/11/17 09:47:22;;;;;;;4.07;1.00;;;;;;;9.04;100.00;93921.91;5108445;27;20706;-72
2022/11/17 09:49:54;;;;;;;2.00;0.75;;;;;;;9.09;100.00;93918.94;5109491;27;21512;-72
2022/11/17 09:52:25;;;;;;;4.90;1.27;;;;;;;9.13;100.00;93921.13;5114737;27;21441;-71
2022/11/17 09:54:56;;;;;;;4.63;1.20;;;;;;;9.14;100.00;93917.59;5121629;27;20871;-71
2022/11/17 09:57:34;;;;;;;4.10;1.40;;;;;;;9.17;100.00;93919.91;5114297;27;20799;-71
2022/11/17 10:00:06;;;;;;;1.90;0.90;;;;;;;9.14;100.00;93924.53;5119633;28;20652;-72
2022/11/17 10:02:32;;;;;;;6.75;1.33;;;;;;;9.27;100.00;93919.94;5108457;28;21354;-72
2022/11/17 10:04:59;;;;;;;3.53;1.40;;;;;;;9.36;100.00;93919.13;5121005;28;20779;-71
2022/11/17 10:07:27;;;;;;;5.13;1.40;;;;;;;9.34;100.00;93921.00;5109628;28;20771;-71
2022/11/17 10:09:55;;;;;;;3.85;0.90;;;;;;;9.33;100.00;93905.66;5107883;28;24435;-72
2022/11/17 10:12:26;;;;;;;4.88;1.30;;;;;;;9.33;100.00;93923.72;5120578;28;24437;-72
2022/11/17 10:14:54;;;;;;;3.45;1.08;;;;;;;9.31;100.00;93929.03;5107415;28;20773;-72
2022/11/17 10:17:21;;;;;;;7.85;1.50;;;;;;;9.27;100.00;93932.84;5119624;28;20791;-72
2022/11/17 10:19:47;;;;;;;4.95;1.50;;;;;;;9.29;100.00;93935.28;5107933;28;25220;-72
2022/11/17 10:22:21;;;;;;;5.72;1.25;;;;;;;9.24;100.00;93938.28;5113865;28;24442;-72
2022/11/17 10:24:50;;;;;;;5.32;1.55;;;;;;;9.26;100.00;93938.94;5121876;27;20734;-72
2022/11/17 10:27:23;;;;;;;4.68;1.65;;;;;;;9.26;100.00;93946.69;5112583;28;20903;-72
2022/11/17 10:29:58;;;;;;;3.67;1.40;;;;;;;9.23;100.00;93952.13;5101269;28;20655;-72
2022/11/17 10:32:25;;;;;;;7.03;1.43;;;;;;;9.21;100.00;93952.25;5103383;28;21254;-72
2022/11/17 10:34:53;;;;;;;6.38;1.65;;;;;;;9.25;100.00;93952.00;5105303;28;20787;-72
2022/11/17 10:37:30;;;;;;;6.13;1.75;;;;;;;9.30;100.00;93949.84;5109455;28;24515;-72
2022/11/17 10:40:18;;;;;;;8.50;1.40;;;;;;;9.31;100.00;93952.31;5109991;28;20730;-72
2022/11/17 10:42:56;;;;;;;8.48;1.70;;;;;;;9.40;100.00;93940.34;5115874;28;20655;-72
2022/11/17 10:45:23;;;;;;;3.90;1.20;;;;;;;9.54;100.00;93939.13;5105347;28;20711;-72
2022/11/17 10:47:50;;;;;;;4.72;1.65;;;;;;;9.66;100.00;93933.69;5115209;28;20757;-72
2022/11/17 10:50:22;;;;;;;4.07;1.65;;;;;;;9.86;100.00;93937.13;5105418;28;21136;-72
2022/11/17 10:52:50;;;;;;;4.97;1.88;;;;;;;9.92;100.00;93936.53;5107985;28;20669;-72
2022/11/17 10:55:23;;;;;;;6.63;1.70;;;;;;;9.84;100.00;93941.59;5108532;28;24771;-71
2022/11/17 10:57:54;;;;;;;7.97;1.80;;;;;;;9.79;100.00;93948.94;5122605;28;20633;-72
2022/11/17 11:00:28;;;;;;;4.55;1.30;;;;;;;9.68;100.00;93941.31;5118174;28;20818;-71
2022/11/17 11:03:06;;;;;;;10.15;1.52;;;;;;;9.68;100.00;93942.13;5099533;28;20683;-72
2022/11/17 11:05:33;;;;;;;4.63;1.42;;;;;;;9.67;100.00;93940.47;5104475;28;20711;-73
2022/11/17 11:08:18;;;;;;;8.68;1.58;;;;;;;9.52;100.00;93941.03;5104631;28;24437;-72
2022/11/17 11:10:47;;;;;;;8.75;1.73;;;;;;;9.43;100.00;93946.06;5116756;27;21367;-73
2022/11/17 11:13:22;;;;;;;6.93;1.52;;;;;;;9.26;100.00;93945.88;5122573;27;24436;-72
2022/11/17 11:15:49;;;;;;;4.18;1.20;;;;;;;9.14;100.00;93937.44;5113565;27;20823;-72
2022/11/17 11:18:17;;;;;;;4.13;1.50;;;;;;;9.06;100.00;93942.44;5119236;27;24791;-72
2022/11/17 11:20:50;;;;;;;3.38;1.20;;;;;;;9.00;100.00;93943.78;5120901;27;24432;-72
2022/11/17 11:23:27;;;;;;;4.25;1.13;;;;;;;9.04;100.00;93942.56;5126335;27;20742;-71
2022/11/17 11:26:06;;;;;;;6.57;1.40;;;;;;;8.93;100.00;93942.66;5116221;27;21157;-71
2022/11/17 11:28:44;;;;;;;5.07;1.40;;;;;;;9.00;100.00;93945.53;5125024;27;20722;-70
2022/11/17 11:31:18;;;;;;;5.03;1.27;;;;;;;8.88;100.00;93958.56;5114041;27;20649;-72
2022/11/17 11:33:51;;;;;;;3.80;1.35;;;;;;;8.92;100.00;93957.34;5105858;28;20661;-71
2022/11/17 11:36:36;;;;;;;5.43;1.50;;;;;;;8.83;100.00;93947.81;5120272;27;20802;-71
2022/11/17 11:39:12;;;;;;;3.53;1.05;;;;;;;8.84;100.00;93939.13;5102540;27;20639;-71
2022/11/17 11:42:04;;;;;;;4.32;1.60;;;;;;;8.89;100.00;93925.81;5100987;27;21091;-71
2022/11/17 11:44:52;;;;;;;5.15;1.40;;;;;;;9.01;100.00;93931.69;5091365;28;21268;-71
2022/11/17 11:47:30;;;;;;;5.07;1.30;;;;;;;9.01;100.00;93931.69;5094677;27;20779;-71
2022/11/17 11:50:02;;;;;;;3.85;1.55;;;;;;;9.09;100.00;93935.25;5104232;27;24434;-71
2022/11/17 11:52:33;;;;;;;6.00;1.40;;;;;;;9.21;100.00;93936.78;5094558;27;24998;-71
2022/11/17 11:55:03;;;;;;;4.25;1.17;;;;;;;9.26;100.00;93941.53;5103886;27;24886;-71
2022/11/17 11:57:35;;;;;;;4.78;1.55;;;;;;;9.33;100.00;93931.50;5094858;27;25211;-71
2022/11/17 12:00:06;;;;;;;5.93;1.48;;;;;;;9.45;100.00;93926.09;5121969;27;20760;-71
2022/11/17 12:02:43;;;;;;;6.75;1.65;;;;;;;9.52;100.00;93923.75;5104821;27;24430;-71
2022/11/17 12:05:20;;;;;;;5.30;1.60;;;;;;;9.65;100.00;93939.81;5124078;27;24997;-71
2022/11/17 12:07:51;;;;;;;4.78;1.60;;;;;;;9.80;100.00;93924.72;5113781;27;24429;-71